sensor_id;sensor_type;location;lat;lon;timestamp;pressure;altitude;pressure_sealevel;temperature;humidity
8697;BME280;4385;48.848;8.924;2022-07-21T00:01:47;97713.72;;;25.57;100.00
8697;BME280;4385;48.848;8.924;2022-07-21T00:04:12;97713.81;;;25.56;100.00
8697;BME280;4385;48.848;8.924;2022-07-21T00:06:37;97714.69;;;25.55;100.00
8697;BME280;4385;48.848;8.924;2022-07-21T00:09:03;97719.94;;;25.53;100.00
8697;BME280;4385;48.848;8.924;2022-07-21T00:11:28;97701.94;;;25.51;100.00
8697;BME280;4385;48.848;8.924;2022-07-21T00:13:53;97700.22;;;25.52;100.00
8697;BME280;4385;48.848;8.924;2022-07-21T00:16:19;97697.69;;;25.50;100.00
8697;BME280;4385;48.848;8.924;2022-07-21T00:18:44;97694.34;;;25.48;100.00
8697;BME280;4385;48.848;8.924;2022-07-21T00:21:10;97696.03;;;25.49;100.00
8697;BME280;4385;48.848;8.924;2022-07-21T00:23:35;97688.31;;;25.49;100.00
8697;BME280;4385;48.848;8.924;2022-07-21T00:26:00;97689.19;;;25.48;100.00
8697;BME280;4385;48.848;8.924;2022-07-21T00:28:26;97699.50;;;25.48;100.00
8697;BME280;4385;48.848;8.924;2022-07-21T00:30:51;97704.66;;;25.48;100.00
8697;BME280;4385;48.848;8.924;2022-07-21T00:33:16;97721.84;;;25.49;100.00
8697;BME280;4385;48.848;8.924;2022-07-21T00:35:42;97724.50;;;25.48;100.00
8697;BME280;4385;48.848;8.924;2022-07-21T00:38:07;97727.97;;;25.47;100.00
8697;BME280;4385;48.848;8.924;2022-07-21T00:40:32;97718.47;;;25.47;100.00
8697;BME280;4385;48.848;8.924;2022-07-21T00:42:58;97708.16;;;25.47;100.00
8697;BME280;4385;48.848;8.924;2022-07-21T00:45:23;97708.16;;;25.47;100.00
8697;BME280;4385;48.848;8.924;2022-07-21T00:47:49;97718.47;;;25.47;100.00
8697;BME280;4385;48.848;8.924;2022-07-21T00:50:17;97723.66;;;25.47;100.00
8697;BME280;4385;48.848;8.924;2022-07-21T00:52:44;97715.06;;;25.47;100.00
8697;BME280;4385;48.848;8.924;2022-07-21T00:55:12;97700.44;;;25.47;100.00
8697;BME280;4385;48.848;8.924;2022-07-21T00:57:38;97715.91;;;25.47;100.00
8697;BME280;4385;48.848;8.924;2022-07-21T01:00:06;97721.91;;;25.48;100.00
8697;BME280;4385;48.848;8.924;2022-07-21T01:02:32;97727.88;;;25.48;100.00
8697;BME280;4385;48.848;8.924;2022-07-21T01:05:01;97729.66;;;25.48;100.00
8697;BME280;4385;48.848;8.924;2022-07-21T01:07:27;97723.66;;;25.47;100.00
8697;BME280;4385;48.848;8.924;2022-07-21T01:09:52;97730.53;;;25.47;100.00
8697;BME280;4385;48.848;8.924;2022-07-21T01:12:20;97733.13;;;25.47;100.00
8697;BME280;4385;48.848;8.924;2022-07-21T01:14:45;97726.28;;;25.46;100.00
8697;BME280;4385;48.848;8.924;2022-07-21T01:17:11;97731.47;;;25.46;100.00
8697;BME280;4385;48.848;8.924;2022-07-21T01:19:37;97738.34;;;25.45;100.00
8697;BME280;4385;48.848;8.924;2022-07-21T01:22:03;97724.63;;;25.45;100.00
8697;BME280;4385;48.848;8.924;2022-07-21T01:24:28;97717.78;;;25.44;100.00
8697;BME280;4385;48.848;8.924;2022-07-21T01:26:53;97722.13;;;25.43;100.00
8697;BME280;4385;48.848;8.924;2022-07-21T01:29:19;97724.72;;;25.43;100.00
8697;BME280;4385;48.848;8.924;2022-07-21T01:31:46;97724.78;;;25.42;100.00
8697;BME280;4385;48.848;8.924;2022-07-21T01:34:13;97736.75;;;25.43;100.00
8697;BME280;4385;48.848;8.924;2022-07-21T01:36:38;97728.19;;;25.42;100.00
8697;BME280;4385;48.848;8.924;2022-07-21T01:39:05;97720.44;;;25.42;100.00
8697;BME280;4385;48.848;8.924;2022-07-21T01:41:50;97718.78;;;25.41;100.00
8697;BME280;4385;48.848;8.924;2022-07-21T01:44:15;97723.94;;;25.41;100.00
8697;BME280;4385;48.848;8.924;2022-07-21T01:46:44;97722.19;;;25.42;100.00
8697;BME280;4385;48.848;8.924;2022-07-21T01:49:10;97722.13;;;25.43;100.00
8697;BME280;4385;48.848;8.924;2022-07-21T01:51:35;97735.91;;;25.42;100.00
8697;BME280;4385;48.848;8.924;2022-07-21T01:54:01;97732.53;;;25.42;100.00
8697;BME280;4385;48.848;8.924;2022-07-21T01:56:27;97742.75;;;25.43;100.00
8697;BME280;4385;48.848;8.924;2022-07-21T01:58:54;97751.38;;;25.42;100.00
8697;BME280;4385;48.848;8.924;2022-07-21T02:01:21;97753.09;;;25.43;100.00
8697;BME280;4385;48.848;8.924;2022-07-21T02:03:48;97755.66;;;25.43;100.00
8697;BME280;4385;48.848;8.924;2022-07-21T02:06:14;97752.16;;;25.44;100.00
8697;BME280;4385;48.848;8.924;2022-07-21T02:08:39;97747.94;;;25.43;100.00
8697;BME280;4385;48.848;8.924;2022-07-21T02:11:07;97745.34;;;25.43;100.00
8697;BME280;4385;48.848;8.924;2022-07-21T02:13:33;97745.41;;;25.42;100.00
8697;BME280;4385;48.848;8.924;2022-07-21T02:15:58;97740.25;;;25.42;100.00
8697;BME280;4385;48.848;8.924;2022-07-21T02:18:23;97735.91;;;25.42;100.00
8697;BME280;4385;48.848;8.924;2022-07-21T02:20:49;97744.56;;;25.41;100.00
8697;BME280;4385;48.848;8.924;2022-07-21T02:23:16;97741.06;;;25.42;100.00
8697;BME280;4385;48.848;8.924;2022-07-21T02:25:41;97747.06;;;25.43;100.00
8697;BME280;4385;48.848;8.924;2022-07-21T02:28:07;97752.31;;;25.41;100.00
8697;BME280;4385;48.848;8.924;2022-07-21T02:30:32;97756.56;;;25.42;100.00
8697;BME280;4385;48.848;8.924;2022-07-21T02:32:58;97752.31;;;25.41;100.00
8697;BME280;4385;48.848;8.924;2022-07-21T02:35:23;97744.56;;;25.41;100.00
8697;BME280;4385;48.848;8.924;2022-07-21T02:37:48;97739.41;;;25.41;100.00
8697;BME280;4385;48.848;8.924;2022-07-21T02:40:14;97734.25;;;25.41;100.00
8697;BME280;4385;48.848;8.924;2022-07-21T02:42:39;97751.47;;;25.40;100.00
8697;BME280;4385;48.848;8.924;2022-07-21T02:45:06;97754.88;;;25.41;100.00
8697;BME280;4385;48.848;8.924;2022-07-21T02:47:32;97754.03;;;25.40;100.00
8697;BME280;4385;48.848;8.924;2022-07-21T02:49:57;97736.91;;;25.39;100.00
8697;BME280;4385;48.848;8.924;2022-07-21T02:52:22;97748.13;;;25.38;100.00
8697;BME280;4385;48.848;8.924;2022-07-21T02:54:47;97756.69;;;25.39;100.00
8697;BME280;4385;48.848;8.924;2022-07-21T02:57:13;97755.88;;;25.38;100.00
8697;BME280;4385;48.848;8.924;2022-07-21T02:59:38;97755.03;;;25.38;100.00
8697;BME280;4385;48.848;8.924;2022-07-21T03:02:03;97756.75;;;25.37;100.00
8697;BME280;4385;48.848;8.924;2022-07-21T03:04:29;97758.53;;;25.37;100.00
8697;BME280;4385;48.848;8.924;2022-07-21T03:06:54;97764.56;;;25.36;100.00
8697;BME280;4385;48.848;8.924;2022-07-21T03:09:19;97764.50;;;25.37;100.00
8697;BME280;4385;48.848;8.924;2022-07-21T03:11:45;97761.09;;;25.37;100.00
8697;BME280;4385;48.848;8.924;2022-07-21T03:14:10;97768.84;;;25.37;100.00
8697;BME280;4385;48.848;8.924;2022-07-21T03:16:35;97769.72;;;25.36;100.00
8697;BME280;4385;48.848;8.924;2022-07-21T03:19:00;97760.25;;;25.36;100.00
8697;BME280;4385;48.848;8.924;2022-07-21T03:21:26;97767.09;;;25.37;100.00
8697;BME280;4385;48.848;8.924;2022-07-21T03:23:51;97771.44;;;25.37;100.00
8697;BME280;4385;48.848;8.924;2022-07-21T03:26:16;97779.16;;;25.37;100.00
8697;BME280;4385;48.848;8.924;2022-07-21T03:28:43;97776.59;;;25.37;100.00
8697;BME280;4385;48.848;8.924;2022-07-21T03:31:08;97772.31;;;25.36;100.00
8697;BME280;4385;48.848;8.924;2022-07-21T03:33:34;97774.00;;;25.37;100.00
8697;BME280;4385;48.848;8.924;2022-07-21T03:35:59;97779.97;;;25.37;100.00
8697;BME280;4385;48.848;8.924;2022-07-21T03:38:25;97789.56;;;25.35;100.00
8697;BME280;4385;48.848;8.924;2022-07-21T03:40:50;97794.63;;;25.37;100.00
8697;BME280;4385;48.848;8.924;2022-07-21T03:43:16;97798.09;;;25.36;100.00
8697;BME280;4385;48.848;8.924;2022-07-21T03:45:41;97803.25;;;25.36;100.00
8697;BME280;4385;48.848;8.924;2022-07-21T03:48:07;97804.13;;;25.36;100.00
8697;BME280;4385;48.848;8.924;2022-07-21T03:50:34;97795.53;;;25.36;100.00
8697;BME280;4385;48.848;8.924;2022-07-21T03:52:59;97791.28;;;25.35;100.00
8697;BME280;4385;48.848;8.924;2022-07-21T03:55:25;97781.81;;;25.35;100.00
8697;BME280;4385;48.848;8.924;2022-07-21T03:57:53;97789.63;;;25.34;100.00
8697;BME280;4385;48.848;8.924;2022-07-21T04:00:22;97790.44;;;25.34;100.00
8697;BME280;4385;48.848;8.924;2022-07-21T04:02:49;97794.78;;;25.34;100.00
8697;BME280;4385;48.848;8.924;2022-07-21T04:05:15;97791.34;;;25.33;100.00
8697;BME280;4385;48.848;8.924;2022-07-21T04:07:42;97800.09;;;25.31;100.00
8697;BME280;4385;48.848;8.924;2022-07-21T04:10:09;97800.09;;;25.31;100.00
8697;BME280;4385;48.848;8.924;2022-07-21T04:12:35;97800.09;;;25.31;100.00
8697;BME280;4385;48.848;8.924;2022-07-21T04:15:01;97808.69;;;25.30;100.00
8697;BME280;4385;48.848;8.924;2022-07-21T04:17:26;97803.53;;;25.30;100.00
8697;BME280;4385;48.848;8.924;2022-07-21T04:19:51;97803.53;;;25.30;100.00
8697;BME280;4385;48.848;8.924;2022-07-21T04:22:17;97800.97;;;25.30;100.00
8697;BME280;4385;48.848;8.924;2022-07-21T04:24:42;97812.13;;;25.30;100.00
8697;BME280;4385;48.848;8.924;2022-07-21T04:27:08;97818.13;;;25.31;100.00
8697;BME280;4385;48.848;8.924;2022-07-21T04:29:33;97812.13;;;25.30;100.00
8697;BME280;4385;48.848;8.924;2022-07-21T04:31:59;97807.88;;;25.29;100.00
8697;BME280;4385;48.848;8.924;2022-07-21T04:34:24;97809.63;;;25.28;100.00
8697;BME280;4385;48.848;8.924;2022-07-21T04:36:50;97812.19;;;25.28;100.00
8697;BME280;4385;48.848;8.924;2022-07-21T04:39:15;97812.19;;;25.28;100.00
8697;BME280;4385;48.848;8.924;2022-07-21T04:41:40;97818.19;;;25.29;100.00
8697;BME280;4385;48.848;8.924;2022-07-21T04:44:06;97825.09;;;25.28;100.00
8697;BME280;4385;48.848;8.924;2022-07-21T04:46:31;97821.59;;;25.30;100.00
8697;BME280;4385;48.848;8.924;2022-07-21T04:48:56;97817.34;;;25.28;100.00
8697;BME280;4385;48.848;8.924;2022-07-21T04:51:22;97806.19;;;25.28;100.00
8697;BME280;4385;48.848;8.924;2022-07-21T04:53:47;97809.63;;;25.28;100.00
8697;BME280;4385;48.848;8.924;2022-07-21T04:56:12;97820.84;;;25.27;100.00
8697;BME280;4385;48.848;8.924;2022-07-21T04:58:37;97826.00;;;25.27;100.00
8697;BME280;4385;48.848;8.924;2022-07-21T05:01:03;97826.81;;;25.28;100.00
8697;BME280;4385;48.848;8.924;2022-07-21T05:03:28;97825.16;;;25.27;100.00
8697;BME280;4385;48.848;8.924;2022-07-21T05:05:53;97824.31;;;25.26;100.00
8697;BME280;4385;48.848;8.924;2022-07-21T05:08:19;97823.44;;;25.27;100.00
8697;BME280;4385;48.848;8.924;2022-07-21T05:10:44;97826.00;;;25.27;100.00
8697;BME280;4385;48.848;8.924;2022-07-21T05:13:09;97823.44;;;25.27;100.00
8697;BME280;4385;48.848;8.924;2022-07-21T05:15:35;97826.81;;;25.28;100.00
8697;BME280;4385;48.848;8.924;2022-07-21T05:18:00;97827.66;;;25.28;100.00
8697;BME280;4385;48.848;8.924;2022-07-21T05:20:25;97821.59;;;25.30;100.00
8697;BME280;4385;48.848;8.924;2022-07-21T05:22:50;97828.53;;;25.29;100.00
8697;BME280;4385;48.848;8.924;2022-07-21T05:25:16;97834.50;;;25.30;100.00
8697;BME280;4385;48.848;8.924;2022-07-21T05:27:41;97834.50;;;25.30;100.00
8697;BME280;4385;48.848;8.924;2022-07-21T05:30:07;97840.50;;;25.30;100.00
8697;BME280;4385;48.848;8.924;2022-07-21T05:32:33;97839.66;;;25.30;100.00
8697;BME280;4385;48.848;8.924;2022-07-21T05:34:58;97840.50;;;25.30;100.00
8697;BME280;4385;48.848;8.924;2022-07-21T05:37:23;97831.91;;;25.30;100.00
8697;BME280;4385;48.848;8.924;2022-07-21T05:39:49;97831.91;;;25.30;100.00
8697;BME280;4385;48.848;8.924;2022-07-21T05:42:14;97840.56;;;25.28;100.00
8697;BME280;4385;48.848;8.924;2022-07-21T05:44:39;97849.09;;;25.31;100.00
8697;BME280;4385;48.848;8.924;2022-07-21T05:47:05;97849.97;;;25.30;100.00
8697;BME280;4385;48.848;8.924;2022-07-21T05:49:30;97853.41;;;25.30;100.00
8697;BME280;4385;48.848;8.924;2022-07-21T05:51:55;97850.81;;;25.30;100.00
8697;BME280;4385;48.848;8.924;2022-07-21T05:54:21;97852.47;;;25.31;100.00
8697;BME280;4385;48.848;8.924;2022-07-21T05:56:46;97852.47;;;25.31;100.00
8697;BME280;4385;48.848;8.924;2022-07-21T05:59:11;97863.63;;;25.32;100.00
8697;BME280;4385;48.848;8.924;2022-07-21T06:01:37;97870.47;;;25.33;100.00
8697;BME280;4385;48.848;8.924;2022-07-21T06:04:02;97870.47;;;25.33;100.00
8697;BME280;4385;48.848;8.924;2022-07-21T06:06:27;97876.00;;;25.44;100.00
8697;BME280;4385;48.848;8.924;2022-07-21T06:08:53;97874.78;;;25.51;100.00
8697;BME280;4385;48.848;8.924;2022-07-21T06:11:19;97875.28;;;25.60;100.00
8697;BME280;4385;48.848;8.924;2022-07-21T06:13:46;97871.03;;;25.59;100.00
8697;BME280;4385;48.848;8.924;2022-07-21T06:16:12;97875.56;;;25.53;100.00
8697;BME280;4385;48.848;8.924;2022-07-21T06:18:38;97869.84;;;25.47;100.00
8697;BME280;4385;48.848;8.924;2022-07-21T06:21:04;97876.78;;;25.46;100.00
8697;BME280;4385;48.848;8.924;2022-07-21T06:23:29;97874.31;;;25.43;100.00
8697;BME280;4385;48.848;8.924;2022-07-21T06:25:55;97877.66;;;25.45;100.00
8697;BME280;4385;48.848;8.924;2022-07-21T06:28:20;97876.13;;;25.41;100.00
8697;BME280;4385;48.848;8.924;2022-07-21T06:30:46;97873.81;;;25.35;100.00
8697;BME280;4385;48.848;8.924;2022-07-21T06:33:12;97866.28;;;25.30;100.00
8697;BME280;4385;48.848;8.924;2022-07-21T06:35:37;97872.16;;;25.34;100.00
8697;BME280;4385;48.848;8.924;2022-07-21T06:38:03;97871.31;;;25.33;100.00
8697;BME280;4385;48.848;8.924;2022-07-21T06:40:29;97872.16;;;25.34;100.00
8697;BME280;4385;48.848;8.924;2022-07-21T06:42:54;97871.25;;;25.35;100.00
8697;BME280;4385;48.848;8.924;2022-07-21T06:45:20;97875.34;;;25.39;100.00
8697;BME280;4385;48.848;8.924;2022-07-21T06:47:46;97864.34;;;25.35;100.00
8697;BME280;4385;48.848;8.924;2022-07-21T06:50:11;97875.34;;;25.39;100.00
8697;BME280;4385;48.848;8.924;2022-07-21T06:52:37;97875.22;;;25.42;100.00
8697;BME280;4385;48.848;8.924;2022-07-21T06:55:05;97875.00;;;25.47;100.00
8697;BME280;4385;48.848;8.924;2022-07-21T06:57:30;97879.13;;;25.51;100.00
8697;BME280;4385;48.848;8.924;2022-07-21T06:59:56;97876.34;;;25.56;100.00
8697;BME280;4385;48.848;8.924;2022-07-21T07:02:21;97876.28;;;25.57;100.00
8697;BME280;4385;48.848;8.924;2022-07-21T07:04:46;97882.19;;;25.59;100.00
8697;BME280;4385;48.848;8.924;2022-07-21T07:07:12;97889.88;;;25.61;100.00
8697;BME280;4385;48.848;8.924;2022-07-21T07:09:37;97889.00;;;25.62;100.00
8697;BME280;4385;48.848;8.924;2022-07-21T07:12:03;97892.31;;;25.64;100.00
8697;BME280;4385;48.848;8.924;2022-07-21T07:14:30;97899.03;;;25.68;100.00
8697;BME280;4385;48.848;8.924;2022-07-21T07:16:55;97900.50;;;25.74;100.00
8697;BME280;4385;48.848;8.924;2022-07-21T07:19:21;97900.91;;;25.84;100.00
8697;BME280;4385;48.848;8.924;2022-07-21T07:21:46;97891.97;;;25.91;100.00
8697;BME280;4385;48.848;8.924;2022-07-21T07:24:11;97890.84;;;25.97;100.00
8697;BME280;4385;48.848;8.924;2022-07-21T07:26:36;97896.69;;;26.00;100.00
8697;BME280;4385;48.848;8.924;2022-07-21T07:29:02;97890.53;;;26.03;100.00
8697;BME280;4385;48.848;8.924;2022-07-21T07:31:28;97890.47;;;26.05;100.00
8697;BME280;4385;48.848;8.924;2022-07-21T07:33:53;97890.41;;;26.06;100.00
8697;BME280;4385;48.848;8.924;2022-07-21T07:36:21;97888.59;;;26.08;100.00
8697;BME280;4385;48.848;8.924;2022-07-21T07:38:47;97898.06;;;26.08;100.00
8697;BME280;4385;48.848;8.924;2022-07-21T07:41:13;97892.03;;;26.09;100.00
8697;BME280;4385;48.848;8.924;2022-07-21T07:43:38;97896.25;;;26.10;100.00
8697;BME280;4385;48.848;8.924;2022-07-21T07:46:04;97894.47;;;26.12;100.00
8697;BME280;4385;48.848;8.924;2022-07-21T07:48:30;97889.22;;;26.13;100.00
8697;BME280;4385;48.848;8.924;2022-07-21T07:50:56;97902.06;;;26.15;100.00
8697;BME280;4385;48.848;8.924;2022-07-21T07:53:21;97893.38;;;26.16;100.00
8697;BME280;4385;48.848;8.924;2022-07-21T07:55:47;97893.31;;;26.18;100.00
8697;BME280;4385;48.848;8.924;2022-07-21T07:58:12;97895.97;;;26.16;100.00
8697;BME280;4385;48.848;8.924;2022-07-21T08:00:37;97894.31;;;26.15;100.00
8697;BME280;4385;48.848;8.924;2022-07-21T08:03:04;97889.97;;;26.15;100.00
8697;BME280;4385;48.848;8.924;2022-07-21T08:05:30;97895.97;;;26.16;100.00
8697;BME280;4385;48.848;8.924;2022-07-21T08:07:55;97893.31;;;26.18;100.00
8697;BME280;4385;48.848;8.924;2022-07-21T08:10:20;97901.91;;;26.18;100.00
8697;BME280;4385;48.848;8.924;2022-07-21T08:12:46;97894.97;;;26.19;100.00
8697;BME280;4385;48.848;8.924;2022-07-21T08:15:11;97894.97;;;26.19;100.00
8697;BME280;4385;48.848;8.924;2022-07-21T08:17:36;97900.00;;;26.22;100.00
8697;BME280;4385;48.848;8.924;2022-07-21T08:20:02;97883.59;;;26.23;100.00
8697;BME280;4385;48.848;8.924;2022-07-21T08:22:29;97884.34;;;26.25;100.00
8697;BME280;4385;48.848;8.924;2022-07-21T08:24:54;97886.88;;;26.26;100.00
8697;BME280;4385;48.848;8.924;2022-07-21T08:27:20;97892.88;;;26.27;100.00
8697;BME280;4385;48.848;8.924;2022-07-21T08:29:45;97880.81;;;26.27;100.00
8697;BME280;4385;48.848;8.924;2022-07-21T08:32:11;97879.03;;;26.28;100.00
8697;BME280;4385;48.848;8.924;2022-07-21T08:34:37;97869.47;;;26.30;100.00
8697;BME280;4385;48.848;8.924;2022-07-21T08:37:02;97875.53;;;26.31;100.00
8697;BME280;4385;48.848;8.924;2022-07-21T08:39:28;97872.97;;;26.29;100.00
8697;BME280;4385;48.848;8.924;2022-07-21T08:41:53;97868.63;;;26.30;100.00
8697;BME280;4385;48.848;8.924;2022-07-21T08:44:22;97874.66;;;26.30;100.00
8697;BME280;4385;48.848;8.924;2022-07-21T08:46:49;97876.38;;;26.30;100.00
8697;BME280;4385;48.848;8.924;2022-07-21T08:49:15;97877.81;;;26.37;100.00
8697;BME280;4385;48.848;8.924;2022-07-21T08:51:44;97874.16;;;26.41;100.00
8697;BME280;4385;48.848;8.924;2022-07-21T08:54:09;97875.72;;;26.44;100.00
8697;BME280;4385;48.848;8.924;2022-07-21T08:56:34;97874.00;;;26.44;100.00
8697;BME280;4385;48.848;8.924;2022-07-21T08:59:00;97877.44;;;26.45;100.00
8697;BME280;4385;48.848;8.924;2022-07-21T09:01:26;97880.81;;;26.45;100.00
8697;BME280;4385;48.848;8.924;2022-07-21T09:03:52;97886.00;;;26.45;100.00
8697;BME280;4385;48.848;8.924;2022-07-21T09:06:17;97874.00;;;26.44;100.00
8697;BME280;4385;48.848;8.924;2022-07-21T09:08:47;97876.03;;;26.37;100.00
8697;BME280;4385;48.848;8.924;2022-07-21T09:11:24;97874.53;;;26.33;100.00
8697;BME280;4385;48.848;8.924;2022-07-21T09:14:05;97876.09;;;26.36;100.00
8697;BME280;4385;48.848;8.924;2022-07-21T09:16:34;97881.28;;;26.36;100.00
8697;BME280;4385;48.848;8.924;2022-07-21T09:19:00;97882.91;;;26.38;100.00
8697;BME280;4385;48.848;8.924;2022-07-21T09:21:25;97874.38;;;26.36;100.00
8697;BME280;4385;48.848;8.924;2022-07-21T09:23:50;97883.94;;;26.34;100.00
8697;BME280;4385;48.848;8.924;2022-07-21T09:26:16;97889.09;;;26.34;100.00
8697;BME280;4385;48.848;8.924;2022-07-21T09:28:42;97884.63;;;26.38;100.00
8697;BME280;4385;48.848;8.924;2022-07-21T09:31:09;97887.13;;;26.39;100.00
8697;BME280;4385;48.848;8.924;2022-07-21T09:33:45;97887.13;;;26.39;100.00
8697;BME280;4385;48.848;8.924;2022-07-21T09:36:16;97886.22;;;26.40;100.00
8697;BME280;4385;48.848;8.924;2022-07-21T09:38:43;97883.56;;;26.42;100.00
8697;BME280;4385;48.848;8.924;2022-07-21T09:41:17;97883.41;;;26.45;100.00
8697;BME280;4385;48.848;8.924;2022-07-21T09:46:15;97881.53;;;26.49;100.00
8697;BME280;4385;48.848;8.924;2022-07-21T09:48:43;97870.34;;;26.48;100.00
8697;BME280;4385;48.848;8.924;2022-07-21T09:51:44;97866.94;;;26.48;100.00
8697;BME280;4385;48.848;8.924;2022-07-21T09:54:11;97877.19;;;26.49;100.00
8697;BME280;4385;48.848;8.924;2022-07-21T09:56:42;97866.03;;;26.49;100.00
8697;BME280;4385;48.848;8.924;2022-07-21T09:59:10;97865.94;;;26.50;100.00
8697;BME280;4385;48.848;8.924;2022-07-21T10:01:36;97861.69;;;26.49;100.00
8697;BME280;4385;48.848;8.924;2022-07-21T10:04:03;97859.84;;;26.51;100.00
8697;BME280;4385;48.848;8.924;2022-07-21T10:06:30;97869.28;;;26.52;100.00
8697;BME280;4385;48.848;8.924;2022-07-21T10:08:59;97858.19;;;26.50;100.00
8697;BME280;4385;48.848;8.924;2022-07-21T10:11:25;97853.88;;;26.51;100.00
8697;BME280;4385;48.848;8.924;2022-07-21T10:13:52;97852.09;;;26.51;100.00
8697;BME280;4385;48.848;8.924;2022-07-21T10:16:18;97861.53;;;26.52;100.00
8697;BME280;4385;48.848;8.924;2022-07-21T10:19:10;97849.22;;;26.58;100.00
8697;BME280;4385;48.848;8.924;2022-07-21T10:24:29;97854.06;;;26.64;100.00
8697;BME280;4385;48.848;8.924;2022-07-21T10:27:05;97850.44;;;26.68;100.00
8697;BME280;4385;48.848;8.924;2022-07-21T10:32:20;97853.31;;;26.80;100.00
8697;BME280;4385;48.848;8.924;2022-07-21T10:34:47;97849.81;;;26.81;100.00
8697;BME280;4385;48.848;8.924;2022-07-21T10:40:04;97849.34;;;26.72;100.00
8697;BME280;4385;48.848;8.924;2022-07-21T10:42:30;97848.78;;;26.67;100.00
8697;BME280;4385;48.848;8.924;2022-07-21T10:44:55;97846.38;;;26.62;100.00
8697;BME280;4385;48.848;8.924;2022-07-21T10:47:22;97847.41;;;26.60;100.00
8697;BME280;4385;48.848;8.924;2022-07-21T10:55:21;97849.13;;;26.59;100.00
8697;BME280;4385;48.848;8.924;2022-07-21T10:58:14;97844.03;;;26.58;100.00
8697;BME280;4385;48.848;8.924;2022-07-21T11:03:39;97843.88;;;26.61;100.00
8697;BME280;4385;48.848;8.924;2022-07-21T11:06:24;97838.56;;;26.64;100.00
8697;BME280;4385;48.848;8.924;2022-07-21T11:12:14;97828.91;;;26.68;100.00
8697;BME280;4385;48.848;8.924;2022-07-21T11:14:17;97836.59;;;26.69;100.00
8697;BME280;4385;48.848;8.924;2022-07-21T11:22:08;97839.00;;;26.72;100.00
8697;BME280;4385;48.848;8.924;2022-07-21T11:24:34;97832.94;;;26.73;100.00
8697;BME280;4385;48.848;8.924;2022-07-21T11:27:03;97837.19;;;26.74;100.00
8697;BME280;4385;48.848;8.924;2022-07-21T11:29:30;97837.13;;;26.76;100.00
8697;BME280;4385;48.848;8.924;2022-07-21T11:31:56;97825.03;;;26.76;100.00
8697;BME280;4385;48.848;8.924;2022-07-21T11:34:47;97832.63;;;26.80;100.00
8697;BME280;4385;48.848;8.924;2022-07-21T11:37:18;97831.63;;;26.82;100.00
8697;BME280;4385;48.848;8.924;2022-07-21T11:39:44;97828.97;;;26.84;100.00
8697;BME280;4385;48.848;8.924;2022-07-21T11:42:12;97822.88;;;26.85;100.00
8697;BME280;4385;48.848;8.924;2022-07-21T11:44:40;97840.97;;;26.85;100.00
8697;BME280;4385;48.848;8.924;2022-07-21T11:47:07;97824.66;;;26.84;100.00
8697;BME280;4385;48.848;8.924;2022-07-21T11:49:34;97823.81;;;26.84;100.00
8697;BME280;4385;48.848;8.924;2022-07-21T11:52:03;97821.97;;;26.86;100.00
8697;BME280;4385;48.848;8.924;2022-07-21T11:54:48;97818.31;;;26.90;100.00
8697;BME280;4385;48.848;8.924;2022-07-21T11:57:16;97822.63;;;26.89;100.00
8697;BME280;4385;48.848;8.924;2022-07-21T11:59:43;97824.31;;;26.91;100.00
8697;BME280;4385;48.848;8.924;2022-07-21T12:04:47;97821.34;;;26.98;100.00
8697;BME280;4385;48.848;8.924;2022-07-21T12:07:28;97819.00;;;26.94;100.00
8697;BME280;4385;48.848;8.924;2022-07-21T12:10:05;97810.47;;;26.92;100.00
8697;BME280;4385;48.848;8.924;2022-07-21T12:12:36;97811.63;;;26.86;100.00
8697;BME280;4385;48.848;8.924;2022-07-21T12:15:17;97802.34;;;26.82;100.00
8697;BME280;4385;48.848;8.924;2022-07-21T12:17:48;97806.94;;;26.76;100.00
8697;BME280;4385;48.848;8.924;2022-07-21T12:20:23;97799.34;;;26.73;100.00
8697;BME280;4385;48.848;8.924;2022-07-21T12:22:49;97805.50;;;26.71;100.00
8697;BME280;4385;48.848;8.924;2022-07-21T12:25:17;97804.69;;;26.70;100.00
8697;BME280;4385;48.848;8.924;2022-07-21T12:27:47;97814.25;;;26.68;100.00
8697;BME280;4385;48.848;8.924;2022-07-21T12:33:20;97812.63;;;26.65;100.00
8697;BME280;4385;48.848;8.924;2022-07-21T12:36:05;97804.22;;;26.62;100.00
8697;BME280;4385;48.848;8.924;2022-07-21T12:41:06;97804.31;;;26.60;100.00
8697;BME280;4385;48.848;8.924;2022-07-21T12:43:32;97800.03;;;26.59;100.00
8697;BME280;4385;48.848;8.924;2022-07-21T12:46:00;97807.84;;;26.58;100.00
8697;BME280;4385;48.848;8.924;2022-07-21T12:48:27;97809.72;;;26.56;100.00
8697;BME280;4385;48.848;8.924;2022-07-21T12:51:13;97815.03;;;26.52;100.00
8697;BME280;4385;48.848;8.924;2022-07-21T12:53:43;97818.75;;;26.47;100.00
8697;BME280;4385;48.848;8.924;2022-07-21T12:56:10;97813.81;;;26.42;100.00
8697;BME280;4385;48.848;8.924;2022-07-21T12:58:36;97812.31;;;26.38;100.00
8697;BME280;4385;48.848;8.924;2022-07-21T13:01:03;97806.59;;;26.31;100.00
8697;BME280;4385;48.848;8.924;2022-07-21T13:03:30;97812.66;;;26.30;100.00
8697;BME280;4385;48.848;8.924;2022-07-21T13:05:56;97812.81;;;26.27;100.00
8697;BME280;4385;48.848;8.924;2022-07-21T13:08:22;97811.06;;;26.27;100.00
8697;BME280;4385;48.848;8.924;2022-07-21T13:10:47;97802.53;;;26.25;100.00
8697;BME280;4385;48.848;8.924;2022-07-21T13:13:12;97801.63;;;26.26;100.00
8697;BME280;4385;48.848;8.924;2022-07-21T13:15:38;97806.78;;;26.26;100.00
8697;BME280;4385;48.848;8.924;2022-07-21T13:18:03;97799.19;;;26.23;100.00
8697;BME280;4385;48.848;8.924;2022-07-21T13:20:28;97801.84;;;26.22;100.00
8697;BME280;4385;48.848;8.924;2022-07-21T13:22:54;97796.75;;;26.20;100.00
8697;BME280;4385;48.848;8.924;2022-07-21T13:25:19;97802.00;;;26.19;100.00
8697;BME280;4385;48.848;8.924;2022-07-21T13:27:44;97790.84;;;26.18;100.00
8697;BME280;4385;48.848;8.924;2022-07-21T13:30:10;97789.16;;;26.17;100.00
8697;BME280;4385;48.848;8.924;2022-07-21T13:32:36;97784.00;;;26.17;100.00
8697;BME280;4385;48.848;8.924;2022-07-21T13:35:03;97787.44;;;26.18;100.00
8697;BME280;4385;48.848;8.924;2022-07-21T13:37:28;97786.66;;;26.15;100.00
8697;BME280;4385;48.848;8.924;2022-07-21T13:39:53;97782.41;;;26.14;100.00
8697;BME280;4385;48.848;8.924;2022-07-21T13:42:19;97782.34;;;26.16;100.00
8697;BME280;4385;48.848;8.924;2022-07-21T13:44:44;97779.84;;;26.14;100.00